sensor_id;sensor_type;location;lat;lon;timestamp;P1;durP1;ratioP1;P2;durP2;ratioP2
29382;SDS011;16365;51.598;7.668;2023-06-19T00:00:28;7.55;;;6.28;;
29382;SDS011;16365;51.598;7.668;2023-06-19T00:05:22;6.60;;;5.45;;
29382;SDS011;16365;51.598;7.668;2023-06-19T00:07:49;10.48;;;5.90;;
29382;SDS011;16365;51.598;7.668;2023-06-19T00:10:16;6.35;;;5.00;;
29382;SDS011;16365;51.598;7.668;2023-06-19T00:12:43;7.35;;;5.50;;
29382;SDS011;16365;51.598;7.668;2023-06-19T00:15:10;6.80;;;5.60;;
29382;SDS011;16365;51.598;7.668;2023-06-19T00:17:37;8.52;;;5.65;;
29382;SDS011;16365;51.598;7.668;2023-06-19T00:20:04;7.35;;;5.60;;
29382;SDS011;16365;51.598;7.668;2023-06-19T00:22:33;7.72;;;5.57;;
29382;SDS011;16365;51.598;7.668;2023-06-19T00:25:00;11.02;;;6.05;;
29382;SDS011;16365;51.598;7.668;2023-06-19T00:27:26;6.25;;;4.90;;
29382;SDS011;16365;51.598;7.668;2023-06-19T00:29:53;7.25;;;5.28;;
29382;SDS011;16365;51.598;7.668;2023-06-19T00:32:20;7.50;;;5.57;;
29382;SDS011;16365;51.598;7.668;2023-06-19T00:34:46;7.63;;;5.40;;
29382;SDS011;16365;51.598;7.668;2023-06-19T00:37:13;6.13;;;5.07;;
29382;SDS011;16365;51.598;7.668;2023-06-19T00:39:40;8.23;;;5.10;;
29382;SDS011;16365;51.598;7.668;2023-06-19T00:42:10;6.93;;;4.97;;
29382;SDS011;16365;51.598;7.668;2023-06-19T00:44:36;7.05;;;5.53;;
29382;SDS011;16365;51.598;7.668;2023-06-19T00:47:03;6.57;;;5.10;;
29382;SDS011;16365;51.598;7.668;2023-06-19T00:49:30;5.70;;;4.90;;
29382;SDS011;16365;51.598;7.668;2023-06-19T00:51:57;5.82;;;4.80;;
29382;SDS011;16365;51.598;7.668;2023-06-19T00:54:24;10.32;;;4.88;;
29382;SDS011;16365;51.598;7.668;2023-06-19T00:56:51;6.82;;;5.45;;
29382;SDS011;16365;51.598;7.668;2023-06-19T00:59:20;5.95;;;5.03;;
29382;SDS011;16365;51.598;7.668;2023-06-19T01:01:48;7.70;;;5.40;;
29382;SDS011;16365;51.598;7.668;2023-06-19T01:04:15;7.30;;;5.25;;
29382;SDS011;16365;51.598;7.668;2023-06-19T01:09:35;5.90;;;4.93;;
29382;SDS011;16365;51.598;7.668;2023-06-19T01:12:19;6.10;;;4.93;;
29382;SDS011;16365;51.598;7.668;2023-06-19T01:14:59;7.57;;;4.97;;
29382;SDS011;16365;51.598;7.668;2023-06-19T01:17:29;5.82;;;5.10;;
29382;SDS011;16365;51.598;7.668;2023-06-19T01:19:57;6.15;;;5.07;;
29382;SDS011;16365;51.598;7.668;2023-06-19T01:24:55;13.10;;;5.50;;
29382;SDS011;16365;51.598;7.668;2023-06-19T01:27:24;8.82;;;5.30;;
29382;SDS011;16365;51.598;7.668;2023-06-19T01:29:52;6.15;;;5.05;;
29382;SDS011;16365;51.598;7.668;2023-06-19T01:32:41;5.65;;;4.72;;
29382;SDS011;16365;51.598;7.668;2023-06-19T01:37:37;5.95;;;5.22;;
29382;SDS011;16365;51.598;7.668;2023-06-19T01:40:06;6.93;;;5.15;;
29382;SDS011;16365;51.598;7.668;2023-06-19T01:42:37;7.18;;;5.25;;
29382;SDS011;16365;51.598;7.668;2023-06-19T01:45:05;7.13;;;5.75;;
29382;SDS011;16365;51.598;7.668;2023-06-19T01:47:32;6.60;;;5.50;;
29382;SDS011;16365;51.598;7.668;2023-06-19T01:49:59;6.82;;;5.28;;
29382;SDS011;16365;51.598;7.668;2023-06-19T01:52:25;9.85;;;6.05;;
29382;SDS011;16365;51.598;7.668;2023-06-19T01:54:52;7.10;;;5.88;;
29382;SDS011;16365;51.598;7.668;2023-06-19T01:57:19;6.45;;;5.22;;
29382;SDS011;16365;51.598;7.668;2023-06-19T01:59:45;7.45;;;5.93;;
29382;SDS011;16365;51.598;7.668;2023-06-19T02:02:12;6.78;;;5.38;;
29382;SDS011;16365;51.598;7.668;2023-06-19T02:04:39;8.27;;;6.15;;
29382;SDS011;16365;51.598;7.668;2023-06-19T02:07:05;6.75;;;5.30;;
29382;SDS011;16365;51.598;7.668;2023-06-19T02:09:32;7.35;;;5.60;;
29382;SDS011;16365;51.598;7.668;2023-06-19T02:11:59;8.33;;;5.83;;
29382;SDS011;16365;51.598;7.668;2023-06-19T02:14:26;6.90;;;5.72;;
29382;SDS011;16365;51.598;7.668;2023-06-19T02:16:52;9.15;;;6.05;;
29382;SDS011;16365;51.598;7.668;2023-06-19T02:19:19;7.93;;;5.90;;
29382;SDS011;16365;51.598;7.668;2023-06-19T02:21:45;7.47;;;6.10;;
29382;SDS011;16365;51.598;7.668;2023-06-19T02:24:12;8.20;;;5.85;;
29382;SDS011;16365;51.598;7.668;2023-06-19T02:26:38;9.02;;;6.20;;
29382;SDS011;16365;51.598;7.668;2023-06-19T02:29:05;7.55;;;6.40;;
29382;SDS011;16365;51.598;7.668;2023-06-19T02:31:31;7.15;;;6.30;;
29382;SDS011;16365;51.598;7.668;2023-06-19T02:33:57;6.70;;;5.45;;
29382;SDS011;16365;51.598;7.668;2023-06-19T02:36:24;7.63;;;5.72;;
29382;SDS011;16365;51.598;7.668;2023-06-19T02:38:51;7.35;;;6.20;;
29382;SDS011;16365;51.598;7.668;2023-06-19T02:41:18;7.07;;;5.85;;
29382;SDS011;16365;51.598;7.668;2023-06-19T02:43:45;9.57;;;5.85;;
29382;SDS011;16365;51.598;7.668;2023-06-19T02:46:13;9.95;;;5.95;;
29382;SDS011;16365;51.598;7.668;2023-06-19T02:48:39;8.05;;;6.55;;
29382;SDS011;16365;51.598;7.668;2023-06-19T02:51:06;7.03;;;6.32;;
29382;SDS011;16365;51.598;7.668;2023-06-19T02:53:32;8.02;;;6.28;;
29382;SDS011;16365;51.598;7.668;2023-06-19T02:55:59;9.45;;;6.65;;
29382;SDS011;16365;51.598;7.668;2023-06-19T02:58:25;8.18;;;6.05;;
29382;SDS011;16365;51.598;7.668;2023-06-19T03:00:54;7.88;;;5.93;;
29382;SDS011;16365;51.598;7.668;2023-06-19T03:03:20;10.15;;;6.15;;
29382;SDS011;16365;51.598;7.668;2023-06-19T03:05:49;8.38;;;6.60;;
29382;SDS011;16365;51.598;7.668;2023-06-19T03:08:15;8.95;;;6.82;;
29382;SDS011;16365;51.598;7.668;2023-06-19T03:10:42;7.43;;;6.13;;
29382;SDS011;16365;51.598;7.668;2023-06-19T03:13:08;9.90;;;5.88;;
29382;SDS011;16365;51.598;7.668;2023-06-19T03:15:35;9.55;;;6.38;;
29382;SDS011;16365;51.598;7.668;2023-06-19T03:18:01;11.40;;;6.65;;
29382;SDS011;16365;51.598;7.668;2023-06-19T03:20:30;6.80;;;5.93;;
29382;SDS011;16365;51.598;7.668;2023-06-19T03:22:57;9.95;;;6.20;;
29382;SDS011;16365;51.598;7.668;2023-06-19T03:25:23;12.65;;;6.45;;
29382;SDS011;16365;51.598;7.668;2023-06-19T03:27:50;12.88;;;6.60;;
29382;SDS011;16365;51.598;7.668;2023-06-19T03:30:16;9.88;;;6.40;;
29382;SDS011;16365;51.598;7.668;2023-06-19T03:32:44;9.00;;;6.25;;
29382;SDS011;16365;51.598;7.668;2023-06-19T03:35:12;9.98;;;5.97;;
29382;SDS011;16365;51.598;7.668;2023-06-19T03:37:39;7.55;;;6.25;;
29382;SDS011;16365;51.598;7.668;2023-06-19T03:40:05;8.82;;;6.38;;
29382;SDS011;16365;51.598;7.668;2023-06-19T03:42:32;13.52;;;5.95;;
29382;SDS011;16365;51.598;7.668;2023-06-19T03:45:00;8.55;;;6.18;;
29382;SDS011;16365;51.598;7.668;2023-06-19T03:47:27;8.45;;;6.00;;
29382;SDS011;16365;51.598;7.668;2023-06-19T03:49:53;7.95;;;6.07;;
29382;SDS011;16365;51.598;7.668;2023-06-19T03:52:21;7.70;;;6.17;;
29382;SDS011;16365;51.598;7.668;2023-06-19T03:54:47;12.10;;;6.45;;
29382;SDS011;16365;51.598;7.668;2023-06-19T03:57:14;11.63;;;5.72;;
29382;SDS011;16365;51.598;7.668;2023-06-19T03:59:40;31.88;;;5.78;;
29382;SDS011;16365;51.598;7.668;2023-06-19T04:02:07;9.57;;;5.97;;
29382;SDS011;16365;51.598;7.668;2023-06-19T04:04:34;7.90;;;5.35;;
29382;SDS011;16365;51.598;7.668;2023-06-19T04:07:00;10.75;;;5.20;;
29382;SDS011;16365;51.598;7.668;2023-06-19T04:09:27;5.97;;;4.25;;
29382;SDS011;16365;51.598;7.668;2023-06-19T04:11:53;15.75;;;4.93;;
29382;SDS011;16365;51.598;7.668;2023-06-19T04:14:20;7.65;;;4.40;;
29382;SDS011;16365;51.598;7.668;2023-06-19T04:16:49;11.40;;;4.57;;
29382;SDS011;16365;51.598;7.668;2023-06-19T04:19:15;5.72;;;4.03;;
29382;SDS011;16365;51.598;7.668;2023-06-19T04:21:42;6.85;;;4.13;;
29382;SDS011;16365;51.598;7.668;2023-06-19T04:24:09;7.43;;;4.15;;
29382;SDS011;16365;51.598;7.668;2023-06-19T04:26:35;9.38;;;4.00;;
29382;SDS011;16365;51.598;7.668;2023-06-19T04:29:05;6.18;;;3.63;;
29382;SDS011;16365;51.598;7.668;2023-06-19T04:31:32;5.65;;;3.50;;
29382;SDS011;16365;51.598;7.668;2023-06-19T04:33:59;5.80;;;4.00;;
29382;SDS011;16365;51.598;7.668;2023-06-19T04:36:25;5.57;;;4.07;;
29382;SDS011;16365;51.598;7.668;2023-06-19T04:38:52;4.90;;;3.30;;
29382;SDS011;16365;51.598;7.668;2023-06-19T04:41:19;7.00;;;4.00;;
29382;SDS011;16365;51.598;7.668;2023-06-19T04:43:45;8.35;;;3.80;;
29382;SDS011;16365;51.598;7.668;2023-06-19T04:46:12;6.70;;;3.95;;
29382;SDS011;16365;51.598;7.668;2023-06-19T04:48:38;5.97;;;4.38;;
29382;SDS011;16365;51.598;7.668;2023-06-19T04:51:05;5.13;;;3.55;;
29382;SDS011;16365;51.598;7.668;2023-06-19T04:53:32;6.97;;;3.40;;
29382;SDS011;16365;51.598;7.668;2023-06-19T04:55:58;5.82;;;3.85;;
29382;SDS011;16365;51.598;7.668;2023-06-19T04:58:27;6.85;;;3.58;;
29382;SDS011;16365;51.598;7.668;2023-06-19T05:00:54;5.20;;;3.58;;
29382;SDS011;16365;51.598;7.668;2023-06-19T05:03:20;5.72;;;3.58;;
29382;SDS011;16365;51.598;7.668;2023-06-19T05:05:48;7.45;;;3.55;;
29382;SDS011;16365;51.598;7.668;2023-06-19T05:08:14;5.38;;;4.10;;
29382;SDS011;16365;51.598;7.668;2023-06-19T05:10:41;4.15;;;3.25;;
29382;SDS011;16365;51.598;7.668;2023-06-19T05:13:11;5.43;;;3.35;;
29382;SDS011;16365;51.598;7.668;2023-06-19T05:15:37;4.75;;;3.72;;
29382;SDS011;16365;51.598;7.668;2023-06-19T05:18:04;10.02;;;3.58;;
29382;SDS011;16365;51.598;7.668;2023-06-19T05:20:31;5.40;;;3.75;;
29382;SDS011;16365;51.598;7.668;2023-06-19T05:22:57;5.20;;;3.78;;
29382;SDS011;16365;51.598;7.668;2023-06-19T05:25:24;5.35;;;3.92;;
29382;SDS011;16365;51.598;7.668;2023-06-19T05:27:50;4.88;;;3.28;;
29382;SDS011;16365;51.598;7.668;2023-06-19T05:30:17;5.18;;;3.65;;
29382;SDS011;16365;51.598;7.668;2023-06-19T05:32:43;5.13;;;3.38;;
29382;SDS011;16365;51.598;7.668;2023-06-19T05:35:10;6.35;;;3.65;;
29382;SDS011;16365;51.598;7.668;2023-06-19T05:37:41;4.35;;;3.28;;
29382;SDS011;16365;51.598;7.668;2023-06-19T05:42:36;10.30;;;3.20;;
29382;SDS011;16365;51.598;7.668;2023-06-19T05:45:03;3.63;;;3.17;;
29382;SDS011;16365;51.598;7.668;2023-06-19T05:47:31;5.38;;;3.75;;
29382;SDS011;16365;51.598;7.668;2023-06-19T05:49:57;8.68;;;2.97;;
29382;SDS011;16365;51.598;7.668;2023-06-19T05:52:24;6.65;;;3.33;;
29382;SDS011;16365;51.598;7.668;2023-06-19T05:54:51;6.80;;;3.17;;
29382;SDS011;16365;51.598;7.668;2023-06-19T05:57:19;6.00;;;3.38;;
29382;SDS011;16365;51.598;7.668;2023-06-19T05:59:49;4.68;;;2.78;;
29382;SDS011;16365;51.598;7.668;2023-06-19T06:02:17;5.55;;;2.83;;
29382;SDS011;16365;51.598;7.668;2023-06-19T06:07:12;3.38;;;2.80;;
29382;SDS011;16365;51.598;7.668;2023-06-19T06:09:39;3.80;;;3.00;;
29382;SDS011;16365;51.598;7.668;2023-06-19T06:12:06;3.83;;;2.70;;
29382;SDS011;16365;51.598;7.668;2023-06-19T06:14:33;4.15;;;2.38;;
29382;SDS011;16365;51.598;7.668;2023-06-19T06:17:01;12.13;;;4.90;;
29382;SDS011;16365;51.598;7.668;2023-06-19T06:19:29;3.70;;;2.80;;
29382;SDS011;16365;51.598;7.668;2023-06-19T06:21:58;3.22;;;2.58;;
29382;SDS011;16365;51.598;7.668;2023-06-19T06:24:24;3.05;;;2.28;;
29382;SDS011;16365;51.598;7.668;2023-06-19T06:26:51;4.47;;;2.90;;
29382;SDS011;16365;51.598;7.668;2023-06-19T06:29:17;5.07;;;2.50;;
29382;SDS011;16365;51.598;7.668;2023-06-19T06:31:46;4.18;;;2.83;;
29382;SDS011;16365;51.598;7.668;2023-06-19T06:34:13;6.57;;;3.03;;
29382;SDS011;16365;51.598;7.668;2023-06-19T06:36:39;6.53;;;2.58;;
29382;SDS011;16365;51.598;7.668;2023-06-19T06:39:22;3.53;;;2.58;;
29382;SDS011;16365;51.598;7.668;2023-06-19T06:41:48;5.95;;;2.78;;
29382;SDS011;16365;51.598;7.668;2023-06-19T06:44:15;3.63;;;2.38;;
29382;SDS011;16365;51.598;7.668;2023-06-19T06:46:41;3.10;;;2.42;;
29382;SDS011;16365;51.598;7.668;2023-06-19T06:49:08;2.38;;;2.10;;
29382;SDS011;16365;51.598;7.668;2023-06-19T06:51:34;3.65;;;2.50;;
29382;SDS011;16365;51.598;7.668;2023-06-19T06:54:01;3.00;;;2.20;;
29382;SDS011;16365;51.598;7.668;2023-06-19T06:56:27;4.25;;;2.05;;
29382;SDS011;16365;51.598;7.668;2023-06-19T06:58:54;4.03;;;2.70;;
29382;SDS011;16365;51.598;7.668;2023-06-19T07:01:21;4.22;;;2.47;;
29382;SDS011;16365;51.598;7.668;2023-06-19T07:03:47;3.97;;;2.38;;
29382;SDS011;16365;51.598;7.668;2023-06-19T07:06:14;2.58;;;1.95;;
29382;SDS011;16365;51.598;7.668;2023-06-19T07:08:40;3.13;;;1.95;;
29382;SDS011;16365;51.598;7.668;2023-06-19T07:11:07;3.15;;;2.00;;
29382;SDS011;16365;51.598;7.668;2023-06-19T07:13:34;5.32;;;2.03;;
29382;SDS011;16365;51.598;7.668;2023-06-19T07:16:00;5.22;;;1.90;;
29382;SDS011;16365;51.598;7.668;2023-06-19T07:18:27;7.75;;;2.13;;
29382;SDS011;16365;51.598;7.668;2023-06-19T07:20:54;3.45;;;2.17;;
29382;SDS011;16365;51.598;7.668;2023-06-19T07:23:21;5.60;;;2.20;;
29382;SDS011;16365;51.598;7.668;2023-06-19T07:25:48;2.35;;;1.88;;
29382;SDS011;16365;51.598;7.668;2023-06-19T07:28:15;3.13;;;2.50;;
29382;SDS011;16365;51.598;7.668;2023-06-19T07:30:41;3.53;;;2.30;;
29382;SDS011;16365;51.598;7.668;2023-06-19T07:33:08;4.05;;;2.35;;
29382;SDS011;16365;51.598;7.668;2023-06-19T07:35:34;4.55;;;2.60;;
29382;SDS011;16365;51.598;7.668;2023-06-19T07:38:01;3.88;;;2.33;;
29382;SDS011;16365;51.598;7.668;2023-06-19T07:40:27;2.72;;;2.30;;
29382;SDS011;16365;51.598;7.668;2023-06-19T07:42:54;4.57;;;2.13;;
29382;SDS011;16365;51.598;7.668;2023-06-19T07:45:20;4.35;;;2.20;;
29382;SDS011;16365;51.598;7.668;2023-06-19T07:47:55;3.35;;;2.42;;
29382;SDS011;16365;51.598;7.668;2023-06-19T07:50:24;4.10;;;2.40;;
29382;SDS011;16365;51.598;7.668;2023-06-19T07:52:53;3.72;;;2.60;;
29382;SDS011;16365;51.598;7.668;2023-06-19T07:55:19;4.72;;;2.33;;
29382;SDS011;16365;51.598;7.668;2023-06-19T07:57:46;7.70;;;2.50;;
29382;SDS011;16365;51.598;7.668;2023-06-19T08:00:12;3.72;;;2.38;;
29382;SDS011;16365;51.598;7.668;2023-06-19T08:02:39;4.20;;;2.67;;
29382;SDS011;16365;51.598;7.668;2023-06-19T08:05:07;4.40;;;2.33;;
29382;SDS011;16365;51.598;7.668;2023-06-19T08:07:35;2.60;;;2.30;;
29382;SDS011;16365;51.598;7.668;2023-06-19T08:10:02;3.75;;;2.35;;
29382;SDS011;16365;51.598;7.668;2023-06-19T08:12:40;3.90;;;2.37;;
29382;SDS011;16365;51.598;7.668;2023-06-19T08:15:08;6.55;;;2.38;;
29382;SDS011;16365;51.598;7.668;2023-06-19T08:17:36;8.32;;;2.38;;
29382;SDS011;16365;51.598;7.668;2023-06-19T08:20:02;2.70;;;2.30;;
29382;SDS011;16365;51.598;7.668;2023-06-19T08:22:33;2.88;;;1.90;;
29382;SDS011;16365;51.598;7.668;2023-06-19T08:24:59;6.63;;;2.10;;
29382;SDS011;16365;51.598;7.668;2023-06-19T08:27:26;3.22;;;2.35;;
29382;SDS011;16365;51.598;7.668;2023-06-19T08:29:52;3.78;;;1.90;;
29382;SDS011;16365;51.598;7.668;2023-06-19T08:32:19;7.75;;;2.83;;
29382;SDS011;16365;51.598;7.668;2023-06-19T08:34:45;5.70;;;2.05;;
29382;SDS011;16365;51.598;7.668;2023-06-19T08:37:12;2.03;;;1.75;;
29382;SDS011;16365;51.598;7.668;2023-06-19T08:39:39;2.83;;;1.98;;
29382;SDS011;16365;51.598;7.668;2023-06-19T08:42:06;3.70;;;1.60;;
29382;SDS011;16365;51.598;7.668;2023-06-19T08:44:34;7.03;;;2.60;;
29382;SDS011;16365;51.598;7.668;2023-06-19T08:47:04;4.38;;;2.08;;
29382;SDS011;16365;51.598;7.668;2023-06-19T08:49:33;2.88;;;1.98;;
29382;SDS011;16365;51.598;7.668;2023-06-19T08:52:03;5.00;;;2.30;;
29382;SDS011;16365;51.598;7.668;2023-06-19T08:54:31;53.63;;;4.05;;
29382;SDS011;16365;51.598;7.668;2023-06-19T08:57:02;5.35;;;2.30;;
29382;SDS011;16365;51.598;7.668;2023-06-19T08:59:30;7.70;;;2.28;;
29382;SDS011;16365;51.598;7.668;2023-06-19T09:01:58;4.68;;;2.53;;
29382;SDS011;16365;51.598;7.668;2023-06-19T09:04:25;4.97;;;2.25;;
29382;SDS011;16365;51.598;7.668;2023-06-19T09:09:21;8.00;;;2.50;;
29382;SDS011;16365;51.598;7.668;2023-06-19T09:14:32;5.70;;;2.10;;
29382;SDS011;16365;51.598;7.668;2023-06-19T09:19:27;7.70;;;2.22;;
29382;SDS011;16365;51.598;7.668;2023-06-19T09:21:53;3.67;;;2.10;;
29382;SDS011;16365;51.598;7.668;2023-06-19T09:24:32;4.40;;;2.40;;
29382;SDS011;16365;51.598;7.668;2023-06-19T09:27:09;3.63;;;2.30;;
29382;SDS011;16365;51.598;7.668;2023-06-19T09:29:45;3.65;;;2.20;;
29382;SDS011;16365;51.598;7.668;2023-06-19T09:32:23;5.60;;;2.92;;
29382;SDS011;16365;51.598;7.668;2023-06-19T09:34:55;4.13;;;2.58;;
29382;SDS011;16365;51.598;7.668;2023-06-19T09:37:26;6.88;;;2.40;;
29382;SDS011;16365;51.598;7.668;2023-06-19T09:40:00;3.88;;;2.33;;
29382;SDS011;16365;51.598;7.668;2023-06-19T09:42:38;3.55;;;2.40;;
29382;SDS011;16365;51.598;7.668;2023-06-19T09:45:06;3.55;;;2.22;;
29382;SDS011;16365;51.598;7.668;2023-06-19T09:47:35;4.25;;;2.55;;
29382;SDS011;16365;51.598;7.668;2023-06-19T09:50:14;5.65;;;2.95;;
29382;SDS011;16365;51.598;7.668;2023-06-19T09:52:41;6.20;;;2.50;;
29382;SDS011;16365;51.598;7.668;2023-06-19T09:55:10;4.45;;;2.78;;
29382;SDS011;16365;51.598;7.668;2023-06-19T09:57:41;4.70;;;2.80;;
29382;SDS011;16365;51.598;7.668;2023-06-19T10:00:10;4.82;;;2.55;;
29382;SDS011;16365;51.598;7.668;2023-06-19T10:02:39;6.20;;;2.47;;
29382;SDS011;16365;51.598;7.668;2023-06-19T10:05:07;7.15;;;3.22;;
29382;SDS011;16365;51.598;7.668;2023-06-19T10:07:43;4.47;;;2.92;;
29382;SDS011;16365;51.598;7.668;2023-06-19T10:10:25;7.28;;;2.80;;
29382;SDS011;16365;51.598;7.668;2023-06-19T10:12:58;5.00;;;2.53;;
29382;SDS011;16365;51.598;7.668;2023-06-19T10:15:26;3.35;;;2.30;;
29382;SDS011;16365;51.598;7.668;2023-06-19T10:17:59;13.25;;;3.95;;
29382;SDS011;16365;51.598;7.668;2023-06-19T10:20:28;3.33;;;2.05;;
29382;SDS011;16365;51.598;7.668;2023-06-19T10:23:06;5.38;;;2.60;;
29382;SDS011;16365;51.598;7.668;2023-06-19T10:25:46;2.03;;;1.50;;
29382;SDS011;16365;51.598;7.668;2023-06-19T10:28:20;1.42;;;1.15;;
29382;SDS011;16365;51.598;7.668;2023-06-19T10:30:57;3.00;;;1.25;;
29382;SDS011;16365;51.598;7.668;2023-06-19T10:33:26;2.47;;;1.63;;
29382;SDS011;16365;51.598;7.668;2023-06-19T10:35:55;4.75;;;1.45;;
29382;SDS011;16365;51.598;7.668;2023-06-19T10:38:22;4.88;;;1.60;;
29382;SDS011;16365;51.598;7.668;2023-06-19T10:40:48;4.47;;;1.92;;
29382;SDS011;16365;51.598;7.668;2023-06-19T10:43:21;3.67;;;2.25;;
29382;SDS011;16365;51.598;7.668;2023-06-19T10:45:51;2.47;;;1.98;;
29382;SDS011;16365;51.598;7.668;2023-06-19T10:48:24;2.38;;;2.08;;
29382;SDS011;16365;51.598;7.668;2023-06-19T10:50:51;5.47;;;2.33;;
29382;SDS011;16365;51.598;7.668;2023-06-19T10:53:25;3.58;;;2.70;;
29382;SDS011;16365;51.598;7.668;2023-06-19T10:55:56;4.22;;;2.70;;
29382;SDS011;16365;51.598;7.668;2023-06-19T10:58:24;3.28;;;2.65;;
29382;SDS011;16365;51.598;7.668;2023-06-19T11:00:51;6.80;;;2.10;;
29382;SDS011;16365;51.598;7.668;2023-06-19T11:03:18;4.93;;;2.45;;
29382;SDS011;16365;51.598;7.668;2023-06-19T11:05:48;3.00;;;2.30;;
29382;SDS011;16365;51.598;7.668;2023-06-19T11:08:18;3.17;;;2.40;;
29382;SDS011;16365;51.598;7.668;2023-06-19T11:10:46;5.28;;;3.70;;
29382;SDS011;16365;51.598;7.668;2023-06-19T11:13:14;6.53;;;2.90;;
29382;SDS011;16365;51.598;7.668;2023-06-19T11:15:42;4.57;;;2.75;;
29382;SDS011;16365;51.598;7.668;2023-06-19T11:18:09;3.42;;;2.72;;
29382;SDS011;16365;51.598;7.668;2023-06-19T11:23:15;3.95;;;2.90;;
29382;SDS011;16365;51.598;7.668;2023-06-19T11:25:43;6.00;;;2.80;;
29382;SDS011;16365;51.598;7.668;2023-06-19T11:28:13;6.25;;;3.00;;
29382;SDS011;16365;51.598;7.668;2023-06-19T11:30:41;6.15;;;3.00;;
29382;SDS011;16365;51.598;7.668;2023-06-19T11:33:19;6.15;;;2.88;;
29382;SDS011;16365;51.598;7.668;2023-06-19T11:35:49;8.25;;;3.33;;
29382;SDS011;16365;51.598;7.668;2023-06-19T11:38:23;5.78;;;3.28;;
29382;SDS011;16365;51.598;7.668;2023-06-19T11:40:53;4.20;;;3.35;;
29382;SDS011;16365;51.598;7.668;2023-06-19T11:43:25;5.88;;;2.85;;
29382;SDS011;16365;51.598;7.668;2023-06-19T11:46:02;7.30;;;3.60;;
29382;SDS011;16365;51.598;7.668;2023-06-19T11:48:30;4.53;;;3.55;;
29382;SDS011;16365;51.598;7.668;2023-06-19T11:50:57;9.07;;;3.25;;
29382;SDS011;16365;51.598;7.668;2023-06-19T11:53:23;6.22;;;3.30;;
29382;SDS011;16365;51.598;7.668;2023-06-19T11:55:51;8.30;;;3.30;;
29382;SDS011;16365;51.598;7.668;2023-06-19T11:58:18;24.17;;;5.05;;
29382;SDS011;16365;51.598;7.668;2023-06-19T12:00:47;18.73;;;4.50;;
29382;SDS011;16365;51.598;7.668;2023-06-19T12:03:14;6.00;;;3.25;;
29382;SDS011;16365;51.598;7.668;2023-06-19T12:05:41;11.88;;;4.25;;
29382;SDS011;16365;51.598;7.668;2023-06-19T12:08:08;8.90;;;4.85;;
29382;SDS011;16365;51.598;7.668;2023-06-19T12:10:35;11.63;;;6.53;;
29382;SDS011;16365;51.598;7.668;2023-06-19T12:13:01;9.40;;;4.65;;
29382;SDS011;16365;51.598;7.668;2023-06-19T12:15:28;10.35;;;4.10;;
29382;SDS011;16365;51.598;7.668;2023-06-19T12:17:55;8.98;;;3.63;;
29382;SDS011;16365;51.598;7.668;2023-06-19T12:20:24;6.35;;;3.60;;
29382;SDS011;16365;51.598;7.668;2023-06-19T12:22:52;9.65;;;3.75;;
29382;SDS011;16365;51.598;7.668;2023-06-19T12:25:18;3.92;;;3.05;;
29382;SDS011;16365;51.598;7.668;2023-06-19T12:27:46;5.75;;;3.65;;
29382;SDS011;16365;51.598;7.668;2023-06-19T12:30:13;6.50;;;3.75;;
29382;SDS011;16365;51.598;7.668;2023-06-19T12:32:40;5.03;;;3.53;;
29382;SDS011;16365;51.598;7.668;2023-06-19T12:35:06;7.75;;;3.40;;
29382;SDS011;16365;51.598;7.668;2023-06-19T12:37:33;4.70;;;3.60;;
29382;SDS011;16365;51.598;7.668;2023-06-19T12:40:00;5.15;;;3.33;;
29382;SDS011;16365;51.598;7.668;2023-06-19T12:42:26;4.35;;;3.47;;
29382;SDS011;16365;51.598;7.668;2023-06-19T12:44:53;5.35;;;3.22;;
29382;SDS011;16365;51.598;7.668;2023-06-19T12:47:20;5.50;;;3.63;;
29382;SDS011;16365;51.598;7.668;2023-06-19T12:49:47;6.93;;;3.67;;
29382;SDS011;16365;51.598;7.668;2023-06-19T12:52:13;12.45;;;3.45;;
29382;SDS011;16365;51.598;7.668;2023-06-19T12:54:40;9.55;;;3.67;;
29382;SDS011;16365;51.598;7.668;2023-06-19T12:57:08;8.68;;;3.80;;
29382;SDS011;16365;51.598;7.668;2023-06-19T12:59:35;6.15;;;4.30;;
29382;SDS011;16365;51.598;7.668;2023-06-19T13:02:02;6.22;;;3.70;;
29382;SDS011;16365;51.598;7.668;2023-06-19T13:04:29;3.90;;;3.47;;
29382;SDS011;16365;51.598;7.668;2023-06-19T13:06:55;7.43;;;4.13;;
29382;SDS011;16365;51.598;7.668;2023-06-19T13:09:22;13.05;;;4.25;;
29382;SDS011;16365;51.598;7.668;2023-06-19T13:11:49;6.60;;;3.97;;
29382;SDS011;16365;51.598;7.668;2023-06-19T13:14:16;7.57;;;3.58;;
29382;SDS011;16365;51.598;7.668;2023-06-19T13:16:42;4.55;;;3.58;;
29382;SDS011;16365;51.598;7.668;2023-06-19T13:19:13;5.30;;;4.00;;
29382;SDS011;16365;51.598;7.668;2023-06-19T13:24:07;15.57;;;10.45;;
29382;SDS011;16365;51.598;7.668;2023-06-19T13:26:34;8.30;;;5.85;;
29382;SDS011;16365;51.598;7.668;2023-06-19T13:29:01;5.55;;;4.35;;
29382;SDS011;16365;51.598;7.668;2023-06-19T13:31:28;7.10;;;3.92;;
29382;SDS011;16365;51.598;7.668;2023-06-19T13:33:55;6.18;;;3.95;;
29382;SDS011;16365;51.598;7.668;2023-06-19T13:36:22;5.13;;;3.53;;
29382;SDS011;16365;51.598;7.668;2023-06-19T13:38:50;10.18;;;3.47;;
29382;SDS011;16365;51.598;7.668;2023-06-19T13:41:16;4.45;;;3.60;;
29382;SDS011;16365;51.598;7.668;2023-06-19T13:43:42;6.50;;;4.00;;
29382;SDS011;16365;51.598;7.668;2023-06-19T13:46:11;4.80;;;3.22;;
29382;SDS011;16365;51.598;7.668;2023-06-19T13:48:38;4.82;;;3.55;;
29382;SDS011;16365;51.598;7.668;2023-06-19T13:51:06;6.63;;;4.03;;
29382;SDS011;16365;51.598;7.668;2023-06-19T13:53:32;8.10;;;3.60;;
29382;SDS011;16365;51.598;7.668;2023-06-19T13:55:59;7.45;;;4.07;;
29382;SDS011;16365;51.598;7.668;2023-06-19T13:58:26;13.52;;;3.80;;
29382;SDS011;16365;51.598;7.668;2023-06-19T14:00:52;7.43;;;4.03;;
29382;SDS011;16365;51.598;7.668;2023-06-19T14:03:19;7.32;;;4.13;;
29382;SDS011;16365;51.598;7.668;2023-06-19T14:05:45;6.90;;;3.78;;
29382;SDS011;16365;51.598;7.668;2023-06-19T14:08:12;9.90;;;3.75;;
29382;SDS011;16365;51.598;7.668;2023-06-19T14:10:39;7.97;;;4.07;;
29382;SDS011;16365;51.598;7.668;2023-06-19T14:13:06;5.93;;;3.67;;
29382;SDS011;16365;51.598;7.668;2023-06-19T14:15:32;5.03;;;3.40;;
29382;SDS011;16365;51.598;7.668;2023-06-19T14:17:59;5.47;;;3.50;;
29382;SDS011;16365;51.598;7.668;2023-06-19T14:20:28;5.00;;;3.70;;
29382;SDS011;16365;51.598;7.668;2023-06-19T14:22:54;4.80;;;3.38;;
29382;SDS011;16365;51.598;7.668;2023-06-19T14:25:21;6.85;;;4.25;;
29382;SDS011;16365;51.598;7.668;2023-06-19T14:27:47;5.35;;;3.65;;
29382;SDS011;16365;51.598;7.668;2023-06-19T14:30:14;4.50;;;3.50;;
29382;SDS011;16365;51.598;7.668;2023-06-19T14:32:41;5.93;;;3.47;;
29382;SDS011;16365;51.598;7.668;2023-06-19T14:35:07;6.07;;;3.78;;
29382;SDS011;16365;51.598;7.668;2023-06-19T14:37:34;5.53;;;4.20;;
29382;SDS011;16365;51.598;7.668;2023-06-19T14:40:01;7.25;;;3.90;;
29382;SDS011;16365;51.598;7.668;2023-06-19T14:42:28;5.55;;;3.60;;
29382;SDS011;16365;51.598;7.668;2023-06-19T14:44:54;6.00;;;4.03;;
29382;SDS011;16365;51.598;7.668;2023-06-19T14:47:21;6.60;;;4.20;;
29382;SDS011;16365;51.598;7.668;2023-06-19T14:49:51;6.43;;;4.18;;
29382;SDS011;16365;51.598;7.668;2023-06-19T14:52:19;11.13;;;4.50;;
29382;SDS011;16365;51.598;7.668;2023-06-19T14:57:12;7.95;;;4.00;;
29382;SDS011;16365;51.598;7.668;2023-06-19T14:59:39;5.50;;;3.80;;
29382;SDS011;16365;51.598;7.668;2023-06-19T15:02:05;6.45;;;3.85;;
29382;SDS011;16365;51.598;7.668;2023-06-19T15:04:33;9.15;;;3.83;;
29382;SDS011;16365;51.598;7.668;2023-06-19T15:07:00;5.13;;;3.90;;
29382;SDS011;16365;51.598;7.668;2023-06-19T15:09:27;5.90;;;4.03;;
29382;SDS011;16365;51.598;7.668;2023-06-19T15:11:53;8.40;;;4.13;;
29382;SDS011;16365;51.598;7.668;2023-06-19T15:14:20;10.45;;;3.90;;
29382;SDS011;16365;51.598;7.668;2023-06-19T15:16:47;4.88;;;3.90;;
29382;SDS011;16365;51.598;7.668;2023-06-19T15:19:13;9.80;;;3.58;;